Terminal Aerodrome Forecast
Issued by NWS

Home | Current Version | Previous Version | Text Only | Print | Product List | Glossary On
Versions: 1 2 3 4 5 6 7 8 9 10 11 12 13 14
297
FTUS46 KSGX 251129
TAFSNA
TAF
KSNA 251129Z 2512/2612 12006KT P6SM SCT018
      TEMPO 2512/2516 BKN018
     FM251800 21011KT P6SM SCT250
     FM260300 VRB05KT P6SM SCT015 SCT250=

USA.gov is the U.S. government's official web portal to all federal, state and local government web resources and services.